createdAt,value
2022-12-29T00:01:40.824Z,1.30
2022-12-29T00:04:26.029Z,0.70
2022-12-29T00:07:12.494Z,0.90
2022-12-29T00:09:57.668Z,0.65
2022-12-29T00:13:01.179Z,0.70
2022-12-29T00:15:46.429Z,2.55
2022-12-29T00:18:31.370Z,1.38
2022-12-29T00:21:37.499Z,0.50
2022-12-29T00:24:22.864Z,0.50
2022-12-29T00:27:26.284Z,0.50
2022-12-29T00:30:31.943Z,0.60
2022-12-29T00:33:37.957Z,0.73
2022-12-29T00:36:35.770Z,0.63
2022-12-29T00:39:39.373Z,0.70
2022-12-29T00:42:42.944Z,0.60
2022-12-29T00:45:27.987Z,0.73
2022-12-29T00:48:13.091Z,0.35
2022-12-29T00:50:59.167Z,0.55
2022-12-29T00:53:43.930Z,0.40
2022-12-29T00:56:29.089Z,0.60
2022-12-29T00:59:14.221Z,0.30
2022-12-29T01:01:59.542Z,0.98
2022-12-29T01:04:44.750Z,0.38
2022-12-29T01:07:30.124Z,0.55
2022-12-29T01:10:16.049Z,0.30
2022-12-29T01:13:00.827Z,0.40
2022-12-29T01:15:53.643Z,0.50
2022-12-29T01:18:38.699Z,0.45
2022-12-29T01:21:24.537Z,0.50
2022-12-29T01:24:09.856Z,0.50
2022-12-29T01:26:55.408Z,0.40
2022-12-29T01:29:40.802Z,0.63
2022-12-29T01:32:25.873Z,1.33
2022-12-29T01:35:11.597Z,0.55
2022-12-29T01:37:56.872Z,0.67
2022-12-29T01:40:46.223Z,0.93
2022-12-29T01:43:51.340Z,0.63
2022-12-29T01:46:42.242Z,0.60
2022-12-29T01:49:30.144Z,0.50
2022-12-29T01:52:15.409Z,0.97
2022-12-29T01:55:04.017Z,0.63
2022-12-29T01:57:52.105Z,0.50
2022-12-29T02:00:38.540Z,1.02
2022-12-29T02:03:27.439Z,0.50
2022-12-29T02:06:19.121Z,0.50
2022-12-29T02:09:04.143Z,0.73
2022-12-29T02:11:49.393Z,2.55
2022-12-29T02:14:34.350Z,0.60
2022-12-29T02:17:24.573Z,0.77
2022-12-29T02:20:38.661Z,0.77
2022-12-29T02:23:44.190Z,0.70
2022-12-29T02:27:12.011Z,1.17
2022-12-29T02:30:06.327Z,0.68
2022-12-29T02:33:28.214Z,0.82
2022-12-29T02:36:31.647Z,1.87
2022-12-29T02:39:31.163Z,1.38
2022-12-29T02:42:51.861Z,0.75
2022-12-29T02:45:54.728Z,0.80
2022-12-29T02:48:55.916Z,0.55
2022-12-29T02:52:05.075Z,0.83
2022-12-29T02:54:50.701Z,0.70
2022-12-29T02:57:36.047Z,0.45
2022-12-29T03:00:21.068Z,0.60
2022-12-29T03:03:22.031Z,0.60
2022-12-29T03:06:26.847Z,0.53
2022-12-29T03:09:47.755Z,0.80
2022-12-29T03:13:04.477Z,0.50
2022-12-29T03:16:06.352Z,0.80
2022-12-29T03:19:07.736Z,0.40
2022-12-29T03:22:18.911Z,0.50
2022-12-29T03:25:19.519Z,0.63
2022-12-29T03:28:10.597Z,0.45
2022-12-29T03:30:58.607Z,0.77
2022-12-29T03:33:45.910Z,1.38
2022-12-29T03:36:38.396Z,0.53
2022-12-29T03:39:24.685Z,1.25
2022-12-29T03:42:14.959Z,0.88
2022-12-29T03:44:59.864Z,1.60
2022-12-29T03:47:44.793Z,0.85
2022-12-29T03:50:29.709Z,1.17
2022-12-29T03:53:14.811Z,0.77
2022-12-29T03:55:59.916Z,0.75
2022-12-29T03:58:44.919Z,0.63
2022-12-29T04:01:30.176Z,0.57
2022-12-29T04:04:15.223Z,0.73
2022-12-29T04:07:00.329Z,0.73
2022-12-29T04:09:45.292Z,0.60
2022-12-29T04:12:30.475Z,0.98
2022-12-29T04:15:15.572Z,1.10
2022-12-29T04:18:00.375Z,1.73
2022-12-29T04:21:00.934Z,0.70
2022-12-29T04:23:45.735Z,0.80
2022-12-29T04:26:31.024Z,0.80
2022-12-29T04:29:16.145Z,0.63
2022-12-29T04:32:01.312Z,0.53
2022-12-29T04:34:46.293Z,0.50
2022-12-29T04:37:31.488Z,0.43
2022-12-29T04:40:16.597Z,3.50
2022-12-29T04:43:02.085Z,0.57
2022-12-29T04:45:47.526Z,1.03
2022-12-29T04:48:32.566Z,0.90
2022-12-29T04:51:17.324Z,2.22
2022-12-29T04:54:03.674Z,0.50
2022-12-29T04:56:48.863Z,2.55
2022-12-29T04:59:34.012Z,1.90
2022-12-29T05:02:19.218Z,1.63
2022-12-29T05:05:04.796Z,0.50
2022-12-29T05:07:50.239Z,2.08
2022-12-29T05:10:35.483Z,0.68
2022-12-29T05:13:20.577Z,1.17
2022-12-29T05:16:05.771Z,0.55
2022-12-29T05:18:50.980Z,0.98
2022-12-29T05:21:36.163Z,0.47
2022-12-29T05:24:21.474Z,0.40
2022-12-29T05:27:06.333Z,0.70
2022-12-29T05:29:51.247Z,1.50
2022-12-29T05:32:36.163Z,0.60
2022-12-29T05:35:21.069Z,1.50
2022-12-29T05:38:06.008Z,1.77
2022-12-29T05:40:51.068Z,0.47
2022-12-29T05:43:36.007Z,0.50
2022-12-29T05:46:21.203Z,0.60
2022-12-29T05:49:06.885Z,0.50
2022-12-29T05:51:51.851Z,0.57
2022-12-29T05:54:37.105Z,0.50
2022-12-29T05:57:22.306Z,1.23
2022-12-29T06:00:08.358Z,0.65
2022-12-29T06:02:53.855Z,0.50
2022-12-29T06:05:39.201Z,0.65
2022-12-29T06:08:24.515Z,0.67
2022-12-29T06:11:09.414Z,0.45
2022-12-29T06:13:54.381Z,0.45
2022-12-29T06:16:39.334Z,0.30
2022-12-29T06:19:24.688Z,0.60
2022-12-29T06:22:11.733Z,0.77
2022-12-29T06:25:03.064Z,0.68
2022-12-29T06:27:50.255Z,0.57
2022-12-29T06:30:35.113Z,0.57
2022-12-29T06:33:20.292Z,0.43
2022-12-29T06:36:05.711Z,3.27
2022-12-29T06:38:53.272Z,0.68
2022-12-29T06:41:38.778Z,0.40
2022-12-29T06:44:24.087Z,0.50
2022-12-29T06:47:09.004Z,0.82
2022-12-29T06:49:54.115Z,0.50
2022-12-29T06:52:38.852Z,0.63
2022-12-29T06:55:23.913Z,0.50
2022-12-29T06:58:09.103Z,1.38
2022-12-29T07:00:54.186Z,0.50
2022-12-29T07:03:38.980Z,1.23
2022-12-29T07:06:24.108Z,1.58
2022-12-29T07:09:09.922Z,1.33
2022-12-29T07:11:54.815Z,0.80
2022-12-29T07:14:43.269Z,0.47
2022-12-29T07:17:28.786Z,0.40
2022-12-29T07:20:13.542Z,0.50
2022-12-29T07:22:59.459Z,1.48
2022-12-29T07:25:44.557Z,0.65
2022-12-29T07:28:30.820Z,0.95
2022-12-29T07:31:21.505Z,0.70
2022-12-29T07:34:06.493Z,1.13
2022-12-29T07:36:51.678Z,1.05
2022-12-29T07:39:36.379Z,1.20
2022-12-29T07:42:21.594Z,1.20
2022-12-29T07:45:07.228Z,1.40
2022-12-29T07:47:52.295Z,1.85
2022-12-29T07:50:37.737Z,2.25
2022-12-29T07:53:22.983Z,1.65
2022-12-29T07:56:08.145Z,1.23
2022-12-29T07:58:53.133Z,1.83
2022-12-29T08:01:38.052Z,2.95
2022-12-29T08:04:23.348Z,3.42
2022-12-29T08:07:09.300Z,3.85
2022-12-29T08:09:54.541Z,1.48
2022-12-29T08:12:40.579Z,5.70
2022-12-29T08:15:30.513Z,1.35
2022-12-29T08:18:17.673Z,3.00
2022-12-29T08:21:04.616Z,1.42
2022-12-29T08:23:49.792Z,2.42
2022-12-29T08:26:35.846Z,1.47
2022-12-29T08:29:22.249Z,2.15
2022-12-29T08:32:07.666Z,1.98
2022-12-29T08:34:52.758Z,1.90
2022-12-29T08:37:37.635Z,1.85
2022-12-29T08:40:22.791Z,1.73
2022-12-29T08:43:08.951Z,1.63
2022-12-29T08:45:54.188Z,0.57
2022-12-29T08:48:39.299Z,3.53
2022-12-29T08:51:25.130Z,1.42
2022-12-29T08:54:10.485Z,1.77
2022-12-29T08:56:55.387Z,3.97
2022-12-29T08:59:40.318Z,2.83
2022-12-29T09:02:25.238Z,2.38
2022-12-29T09:05:10.708Z,1.05
2022-12-29T09:07:56.116Z,2.80
2022-12-29T09:10:40.949Z,0.98
2022-12-29T09:13:26.132Z,2.33
2022-12-29T09:16:11.471Z,1.85
2022-12-29T09:18:56.571Z,1.48
2022-12-29T09:21:41.704Z,1.70
2022-12-29T09:24:26.868Z,3.22
2022-12-29T09:27:11.947Z,3.20
2022-12-29T09:29:57.240Z,3.15
2022-12-29T09:32:45.420Z,3.63
2022-12-29T09:35:31.658Z,3.43
2022-12-29T09:38:17.833Z,4.38
2022-12-29T09:41:17.733Z,2.50
2022-12-29T09:44:17.983Z,1.83
2022-12-29T09:47:03.295Z,4.00
2022-12-29T09:50:00.925Z,4.37
2022-12-29T09:53:01.849Z,4.35
2022-12-29T09:55:50.924Z,2.08
2022-12-29T09:58:39.362Z,2.67
2022-12-29T10:01:42.443Z,4.57
2022-12-29T10:04:29.058Z,1.50
2022-12-29T10:07:32.926Z,2.65
2022-12-29T10:10:30.949Z,2.00
2022-12-29T10:13:35.821Z,2.92
2022-12-29T10:16:41.156Z,0.55
2022-12-29T10:20:04.775Z,2.00
2022-12-29T10:23:10.390Z,6.03
2022-12-29T10:26:00.449Z,1.85
2022-12-29T10:28:57.382Z,4.95
2022-12-29T10:31:55.100Z,1.17
2022-12-29T10:34:45.988Z,1.97
2022-12-29T10:37:39.610Z,6.07
2022-12-29T10:40:43.245Z,6.55
2022-12-29T10:43:41.945Z,4.72
2022-12-29T10:46:34.968Z,3.75
2022-12-29T10:49:22.302Z,4.10
2022-12-29T10:52:09.045Z,2.55
2022-12-29T10:55:01.875Z,3.92
2022-12-29T10:57:48.513Z,1.30
2022-12-29T11:00:34.347Z,9.30
2022-12-29T11:04:00.000Z,2.07
2022-12-29T11:06:45.264Z,1.40
2022-12-29T11:09:42.439Z,1.63
2022-12-29T11:12:32.177Z,6.65
2022-12-29T11:15:17.412Z,2.35
2022-12-29T11:18:02.271Z,2.50
2022-12-29T11:20:47.977Z,3.75
2022-12-29T11:23:42.137Z,6.68
2022-12-29T11:26:34.182Z,2.15
2022-12-29T11:29:37.267Z,3.63
2022-12-29T11:32:28.841Z,5.50
2022-12-29T11:35:35.413Z,3.90
2022-12-29T11:38:32.574Z,4.55
2022-12-29T11:41:24.646Z,2.65
2022-12-29T11:44:13.454Z,1.95
2022-12-29T11:46:58.689Z,1.63
2022-12-29T11:49:51.146Z,3.35
2022-12-29T11:52:40.315Z,1.60
2022-12-29T11:55:27.397Z,2.45
2022-12-29T11:58:16.761Z,3.88
2022-12-29T12:01:06.859Z,4.57
2022-12-29T12:04:02.124Z,2.70
2022-12-29T12:06:55.090Z,2.83
2022-12-29T12:10:07.719Z,4.65
2022-12-29T12:13:01.726Z,4.20
2022-12-29T12:16:03.036Z,5.60
2022-12-29T12:18:59.933Z,2.42
2022-12-29T12:21:51.316Z,2.55
2022-12-29T12:24:53.022Z,2.20
2022-12-29T12:27:49.880Z,3.28
2022-12-29T12:30:41.732Z,3.40
2022-12-29T12:33:39.950Z,1.17
2022-12-29T12:37:02.803Z,2.78
2022-12-29T12:40:01.270Z,3.97
2022-12-29T12:43:01.270Z,4.25
2022-12-29T12:46:18.957Z,2.30
2022-12-29T12:49:40.398Z,4.88
2022-12-29T12:52:45.996Z,1.13
2022-12-29T12:55:57.048Z,2.28
2022-12-29T12:59:07.187Z,3.63
2022-12-29T13:02:31.100Z,2.90
2022-12-29T13:05:44.262Z,5.80
2022-12-29T13:08:50.445Z,1.42
2022-12-29T13:11:57.397Z,5.95
2022-12-29T13:15:09.539Z,3.30
2022-12-29T13:18:14.688Z,3.17
2022-12-29T13:21:20.369Z,2.75
2022-12-29T13:24:24.462Z,3.17
2022-12-29T13:27:20.277Z,2.78
2022-12-29T13:30:15.952Z,4.18
2022-12-29T13:33:34.912Z,2.50
2022-12-29T13:36:35.152Z,3.20
2022-12-29T13:39:34.024Z,4.65
2022-12-29T13:42:20.350Z,3.42
2022-12-29T13:45:14.391Z,3.67
2022-12-29T13:48:22.428Z,2.77
2022-12-29T13:51:10.395Z,3.75
2022-12-29T13:54:11.038Z,1.75
2022-12-29T13:57:11.184Z,2.63
2022-12-29T14:00:02.680Z,3.97
2022-12-29T14:02:47.882Z,1.97
2022-12-29T14:05:33.702Z,3.95
2022-12-29T14:08:19.151Z,1.65
2022-12-29T14:11:16.628Z,2.47
2022-12-29T14:14:23.729Z,2.72
2022-12-29T14:17:15.163Z,3.67
2022-12-29T14:20:00.895Z,5.53
2022-12-29T14:23:17.788Z,4.22
2022-12-29T14:26:05.753Z,1.88
2022-12-29T14:28:50.703Z,0.77
2022-12-29T14:31:41.537Z,1.33
2022-12-29T14:34:29.971Z,3.40
2022-12-29T14:37:30.025Z,2.63
2022-12-29T14:40:23.992Z,3.92
2022-12-29T14:43:26.158Z,5.57
2022-12-29T14:46:11.373Z,4.07
2022-12-29T14:48:59.729Z,2.90
2022-12-29T14:51:46.422Z,5.63
2022-12-29T14:54:41.535Z,1.35
2022-12-29T14:57:34.750Z,7.20
2022-12-29T15:00:25.368Z,5.40
2022-12-29T15:03:24.936Z,3.47
2022-12-29T15:06:12.455Z,3.72
2022-12-29T15:09:07.280Z,5.88
2022-12-29T15:11:55.807Z,2.63
2022-12-29T15:14:50.625Z,1.10
2022-12-29T15:17:35.655Z,1.95
2022-12-29T15:20:32.347Z,7.63
2022-12-29T15:23:18.080Z,2.55
2022-12-29T15:26:06.540Z,2.33
2022-12-29T15:28:53.737Z,2.83
2022-12-29T15:31:47.996Z,2.83
2022-12-29T15:34:32.936Z,1.65
2022-12-29T15:37:32.884Z,1.23
2022-12-29T15:40:38.085Z,5.57
2022-12-29T15:43:39.477Z,3.70
2022-12-29T15:46:28.304Z,5.43
2022-12-29T15:49:14.997Z,4.55
2022-12-29T15:52:00.273Z,4.25
2022-12-29T15:54:45.299Z,3.60
2022-12-29T15:57:42.689Z,3.47
2022-12-29T16:00:37.255Z,5.75
2022-12-29T16:03:23.947Z,0.98
2022-12-29T16:06:36.785Z,7.30
2022-12-29T16:09:35.820Z,3.80
2022-12-29T16:12:27.397Z,4.27
2022-12-29T16:15:14.990Z,4.10
2022-12-29T16:18:00.429Z,2.95
2022-12-29T16:20:46.433Z,4.97
2022-12-29T16:23:33.105Z,4.00
2022-12-29T16:26:20.649Z,2.80
2022-12-29T16:29:08.332Z,0.80
2022-12-29T16:32:03.765Z,2.78
2022-12-29T16:34:48.870Z,4.78
2022-12-29T16:37:37.065Z,1.85
2022-12-29T16:40:27.011Z,3.37
2022-12-29T16:43:43.286Z,5.45
2022-12-29T16:46:31.079Z,7.25
2022-12-29T16:49:21.201Z,0.90
2022-12-29T16:52:22.023Z,3.53
2022-12-29T16:55:16.149Z,4.00
2022-12-29T16:58:01.402Z,6.07
2022-12-29T17:00:47.583Z,2.10
2022-12-29T17:03:40.745Z,1.17
2022-12-29T17:06:25.830Z,3.35
2022-12-29T17:09:27.603Z,5.23
2022-12-29T17:12:17.543Z,8.10
2022-12-29T17:15:07.366Z,5.25
2022-12-29T17:17:55.085Z,2.90
2022-12-29T17:20:40.341Z,13.57
2022-12-29T17:23:26.803Z,2.33
2022-12-29T17:26:13.114Z,7.53
2022-12-29T17:28:58.216Z,4.00
2022-12-29T17:31:43.477Z,3.75
2022-12-29T17:34:28.679Z,8.90
2022-12-29T17:37:29.894Z,5.67
2022-12-29T17:40:18.174Z,5.93
2022-12-29T17:43:02.927Z,9.23
2022-12-29T17:45:52.890Z,3.67
2022-12-29T17:48:37.702Z,8.05
2022-12-29T17:51:23.157Z,8.47
2022-12-29T17:54:21.137Z,4.45
2022-12-29T17:57:06.284Z,3.25
2022-12-29T17:59:51.329Z,4.82
2022-12-29T18:02:36.434Z,6.45
2022-12-29T18:05:22.872Z,8.10
2022-12-29T18:08:10.370Z,9.32
2022-12-29T18:10:55.753Z,5.13
2022-12-29T18:13:46.272Z,7.20
2022-12-29T18:16:31.710Z,7.13
2022-12-29T18:19:17.148Z,6.87
2022-12-29T18:22:02.124Z,4.97
2022-12-29T18:24:46.923Z,3.72
2022-12-29T18:27:32.487Z,13.77
2022-12-29T18:30:18.120Z,6.43
2022-12-29T18:33:04.062Z,5.53
2022-12-29T18:35:57.376Z,4.63
2022-12-29T18:38:42.463Z,7.18
2022-12-29T18:41:31.688Z,9.00
2022-12-29T18:44:16.913Z,5.43
2022-12-29T18:47:02.211Z,8.20
2022-12-29T18:49:46.967Z,6.57
2022-12-29T18:52:32.214Z,5.75
2022-12-29T18:55:23.502Z,6.78
2022-12-29T18:58:08.527Z,3.75
2022-12-29T19:00:54.363Z,5.87
2022-12-29T19:03:39.143Z,5.60
2022-12-29T19:06:24.110Z,7.30
2022-12-29T19:09:09.649Z,6.00
2022-12-29T19:11:54.455Z,8.48
2022-12-29T19:14:39.390Z,6.43
2022-12-29T19:17:24.478Z,6.65
2022-12-29T19:20:32.179Z,7.55
2022-12-29T19:23:20.204Z,6.80
2022-12-29T19:26:05.728Z,5.68
2022-12-29T19:28:50.623Z,5.33
2022-12-29T19:31:37.676Z,5.25
2022-12-29T19:34:22.568Z,4.13
2022-12-29T19:37:07.622Z,4.82
2022-12-29T19:39:53.109Z,3.22
2022-12-29T19:42:38.109Z,3.40
2022-12-29T19:45:23.367Z,4.95
2022-12-29T19:48:13.512Z,3.97
2022-12-29T19:51:07.596Z,5.40
2022-12-29T19:53:53.561Z,4.85
2022-12-29T19:56:42.767Z,4.17
2022-12-29T19:59:27.929Z,2.08
2022-12-29T20:02:25.434Z,8.65
2022-12-29T20:05:11.194Z,7.90
2022-12-29T20:07:55.957Z,6.03
2022-12-29T20:10:40.905Z,6.37
2022-12-29T20:13:26.153Z,4.30
2022-12-29T20:16:14.491Z,3.13
2022-12-29T20:18:59.320Z,2.95
2022-12-29T20:21:44.031Z,5.85
2022-12-29T20:24:29.852Z,4.77
2022-12-29T20:27:15.028Z,4.72
2022-12-29T20:30:00.054Z,3.20
2022-12-29T20:32:44.995Z,6.97
2022-12-29T20:35:29.989Z,6.30
2022-12-29T20:38:15.227Z,7.50
2022-12-29T20:41:00.768Z,8.23
2022-12-29T20:43:45.799Z,3.90
2022-12-29T20:46:36.680Z,6.05
2022-12-29T20:49:28.832Z,6.25
2022-12-29T20:52:13.648Z,4.80
2022-12-29T20:54:58.913Z,5.20
2022-12-29T20:58:22.084Z,5.25
2022-12-29T21:00:48.941Z,5.30
2022-12-29T21:03:34.988Z,7.10
2022-12-29T21:06:21.235Z,7.17
2022-12-29T21:09:06.433Z,6.55
2022-12-29T21:11:51.319Z,8.05
2022-12-29T21:14:38.581Z,5.50
2022-12-29T21:17:27.590Z,5.20
2022-12-29T21:20:19.627Z,4.10
2022-12-29T21:23:05.320Z,6.55
2022-12-29T21:25:50.214Z,4.15
2022-12-29T21:28:39.264Z,6.25
2022-12-29T21:31:34.878Z,4.25
2022-12-29T21:34:19.746Z,7.40
2022-12-29T21:37:05.020Z,4.70
2022-12-29T21:39:49.813Z,5.00
2022-12-29T21:42:34.706Z,10.68
2022-12-29T21:45:25.986Z,5.20
2022-12-29T21:48:28.638Z,7.37
2022-12-29T21:51:32.667Z,8.30
2022-12-29T21:54:44.974Z,7.70
2022-12-29T21:57:48.378Z,3.63
2022-12-29T22:00:52.214Z,0.77
2022-12-29T22:03:56.929Z,5.77
2022-12-29T22:07:00.538Z,4.55
2022-12-29T22:10:04.032Z,7.45
2022-12-29T22:13:05.281Z,8.88
2022-12-29T22:15:50.513Z,6.60
2022-12-29T22:18:36.521Z,7.43
2022-12-29T22:21:21.692Z,5.10
2022-12-29T22:24:08.330Z,6.10
2022-12-29T22:26:53.540Z,8.23
2022-12-29T22:29:38.357Z,2.30
2022-12-29T22:32:23.875Z,9.37
2022-12-29T22:35:10.173Z,5.78
2022-12-29T22:37:55.315Z,13.50
2022-12-29T22:40:40.394Z,8.70
2022-12-29T22:43:25.497Z,5.22
2022-12-29T22:46:10.944Z,6.97
2022-12-29T22:48:57.481Z,9.27
2022-12-29T22:51:42.396Z,5.32
2022-12-29T22:54:27.593Z,4.45
2022-12-29T22:57:12.933Z,6.20
2022-12-29T22:59:57.936Z,6.43
2022-12-29T23:02:42.899Z,6.05
2022-12-29T23:05:28.277Z,3.83
2022-12-29T23:08:13.433Z,1.92
2022-12-29T23:10:59.059Z,6.72
2022-12-29T23:13:44.955Z,5.73
2022-12-29T23:16:29.855Z,3.50
2022-12-29T23:19:14.919Z,11.10
2022-12-29T23:22:00.102Z,2.22
2022-12-29T23:24:44.971Z,6.07
2022-12-29T23:27:30.262Z,1.60
2022-12-29T23:30:15.300Z,5.93
2022-12-29T23:33:00.442Z,6.13
2022-12-29T23:35:45.260Z,3.53
2022-12-29T23:38:30.336Z,8.38
2022-12-29T23:41:15.357Z,10.27
2022-12-29T23:44:00.476Z,4.75
2022-12-29T23:46:45.690Z,8.38
2022-12-29T23:49:31.029Z,5.57
2022-12-29T23:52:15.962Z,7.53
2022-12-29T23:55:01.048Z,7.47
2022-12-29T23:57:45.930Z,9.57
